Oxford, Georgia
Current Conditions -  °F | °C
As of 1:35 PM on Monday 20 Oct 2014 (Local Time) from KCVC Reporting Station
Broken Clouds Broken Clouds  
Wind Chill: 70°   Ceiling: 3600
Heat Index: 70°   Visibility: 10mi
Dew Point: 52°   Wind: 0mph
Humidity: 53%   Direction: NA
Pressure: 30.07"   Gusts: NA
Location:  33.62°N, 83.87°W
Report Text: KCVC 201735Z AUTO 00000KT 10SM BKN036 21/11 A3007 RMK AO2
Loading
Personal Weather Stations






























Interactive Weather Map
Tropical Storm Tracking
New forecast layout! Learn more

10-Day Weather Forecast

Advertisements
Track Severe Weather on mobile